Nova Esperanca, Brazil
Current Conditions -  °F | °C
As of 12:00 PM on Thursday 30 Oct 2014 (Local Time) from SBMG Reporting Station
Few Clouds Few Clouds  
Wind Chill: 91°   Ceiling: Unl
Heat Index: 91°   Visibility: 6mi
Dew Point: 61°   Wind: 12mph
Humidity: 36%   Direction: 310°NW
Pressure: 29.83"   Gusts: NA
Location:  23.18°S, 52.2°W
Report Text: SBMG 301400Z 31010KT 9999 FEW040 33/16 Q1010
Loading
Personal Weather Stations






























Interactive Weather Map
Tropical Storm Tracking
New forecast layout! Learn more

10-Day Weather Forecast

Advertisements
Track Severe Weather on mobile